createdAt,value
2022-12-29T00:00:15.987Z,99958.63
2022-12-29T00:02:43.737Z,99956.72
2022-12-29T00:05:11.384Z,99959.84
2022-12-29T00:07:40.520Z,99952.28
2022-12-29T00:10:09.058Z,99945.75
2022-12-29T00:12:50.579Z,99950.00
2022-12-29T00:15:35.727Z,99951.28
2022-12-29T00:18:03.549Z,99944.88
2022-12-29T00:20:48.617Z,99953.09
2022-12-29T00:23:35.139Z,99946.09
2022-12-29T00:26:22.836Z,99951.41
2022-12-29T00:29:12.815Z,99950.06
2022-12-29T00:31:58.122Z,99941.69
2022-12-29T00:34:43.409Z,99938.91
2022-12-29T00:37:11.186Z,99939.75
2022-12-29T00:39:57.594Z,99950.91
2022-12-29T00:42:42.976Z,99945.13
2022-12-29T00:45:10.797Z,99962.38
2022-12-29T00:47:38.382Z,99945.88
2022-12-29T00:50:08.254Z,99957.78
2022-12-29T00:52:35.883Z,99955.13
2022-12-29T00:55:05.298Z,99953.50
2022-12-29T00:57:32.919Z,99952.72
2022-12-29T01:00:00.722Z,99941.69
2022-12-29T01:02:28.480Z,99943.72
2022-12-29T01:04:56.146Z,99935.94
2022-12-29T01:07:23.808Z,99927.13
2022-12-29T01:10:08.800Z,99935.56
2022-12-29T01:12:45.805Z,99934.28
2022-12-29T01:15:15.079Z,99943.53
2022-12-29T01:17:42.678Z,99936.34
2022-12-29T01:20:11.633Z,99932.88
2022-12-29T01:22:39.269Z,99926.34
2022-12-29T01:25:07.847Z,99925.34
2022-12-29T01:27:36.789Z,99927.97
2022-12-29T01:30:04.885Z,99919.97
2022-12-29T01:32:32.351Z,99910.59
2022-12-29T01:35:00.388Z,99908.91
2022-12-29T01:37:27.873Z,99905.88
2022-12-29T01:39:55.342Z,99909.72
2022-12-29T01:42:26.915Z,99921.19
2022-12-29T01:44:57.538Z,99922.84
2022-12-29T01:47:30.854Z,99903.38
2022-12-29T01:50:00.215Z,99909.69
2022-12-29T01:52:30.176Z,99920.19
2022-12-29T01:54:58.017Z,99905.41
2022-12-29T01:57:27.931Z,99912.34
2022-12-29T01:59:58.596Z,99904.97
2022-12-29T02:02:26.593Z,99900.06
2022-12-29T02:04:58.858Z,99901.94
2022-12-29T02:07:29.850Z,99903.97
2022-12-29T02:09:57.894Z,99889.84
2022-12-29T02:12:25.659Z,99894.97
2022-12-29T02:14:57.951Z,99903.19
2022-12-29T02:17:33.476Z,99902.97
2022-12-29T02:20:19.747Z,99904.00
2022-12-29T02:22:52.069Z,99902.38
2022-12-29T02:25:45.884Z,99891.31
2022-12-29T02:28:35.605Z,99878.44
2022-12-29T02:31:10.697Z,99904.41
2022-12-29T02:33:50.079Z,99896.63
2022-12-29T02:36:23.726Z,99885.78
2022-12-29T02:38:58.534Z,99875.72
2022-12-29T02:41:33.293Z,99856.50
2022-12-29T02:44:05.890Z,99855.28
2022-12-29T02:46:38.285Z,99861.63
2022-12-29T02:49:11.256Z,99876.34
2022-12-29T02:51:46.234Z,99872.06
2022-12-29T02:54:31.341Z,99870.81
2022-12-29T02:56:58.818Z,99879.41
2022-12-29T02:59:26.471Z,99872.25
2022-12-29T03:02:21.555Z,99864.47
2022-12-29T03:05:00.660Z,99864.88
2022-12-29T03:07:34.804Z,99869.59
2022-12-29T03:10:09.877Z,99865.53
2022-12-29T03:13:00.213Z,99855.69
2022-12-29T03:15:48.074Z,99872.69
2022-12-29T03:18:21.705Z,99861.84
2022-12-29T03:20:53.204Z,99855.31
2022-12-29T03:23:22.001Z,99852.25
2022-12-29T03:25:51.376Z,99838.72
2022-12-29T03:28:21.723Z,99838.13
2022-12-29T03:30:49.373Z,99836.47
2022-12-29T03:33:20.668Z,99832.78
2022-12-29T03:35:50.481Z,99828.28
2022-12-29T03:38:20.602Z,99834.00
2022-12-29T03:40:50.473Z,99837.06
2022-12-29T03:43:19.163Z,99828.47
2022-12-29T03:45:46.700Z,99838.13
2022-12-29T03:48:14.212Z,99823.16
2022-12-29T03:50:43.217Z,99809.84
2022-12-29T03:53:10.745Z,99811.47
2022-12-29T03:55:38.185Z,99806.97
2022-12-29T03:58:05.732Z,99816.63
2022-12-29T04:00:33.189Z,99802.25
2022-12-29T04:03:00.784Z,99806.16
2022-12-29T04:05:28.440Z,99792.03
2022-12-29T04:07:57.229Z,99798.78
2022-12-29T04:10:24.676Z,99795.69
2022-12-29T04:12:52.137Z,99795.69
2022-12-29T04:15:19.684Z,99800.84
2022-12-29T04:17:47.173Z,99807.56
2022-12-29T04:20:32.065Z,99796.72
2022-12-29T04:23:02.341Z,99803.09
2022-12-29T04:25:29.825Z,99803.88
2022-12-29T04:27:57.316Z,99799.34
2022-12-29T04:30:24.889Z,99800.81
2022-12-29T04:32:52.375Z,99796.69
2022-12-29T04:35:19.834Z,99799.56
2022-12-29T04:37:47.301Z,99791.56
2022-12-29T04:40:16.217Z,99808.56
2022-12-29T04:42:44.291Z,99795.44
2022-12-29T04:45:12.536Z,99793.81
2022-12-29T04:47:40.044Z,99795.41
2022-12-29T04:50:08.348Z,99800.53
2022-12-29T04:52:35.911Z,99792.75
2022-12-29T04:55:03.607Z,99789.25
2022-12-29T04:57:32.426Z,99803.41
2022-12-29T05:00:00.879Z,99805.25
2022-12-29T05:02:28.546Z,99807.69
2022-12-29T05:04:56.193Z,99812.03
2022-12-29T05:07:23.696Z,99819.19
2022-12-29T05:09:51.199Z,99817.56
2022-12-29T05:12:18.664Z,99801.19
2022-12-29T05:14:47.495Z,99815.16
2022-12-29T05:17:14.940Z,99822.31
2022-12-29T05:19:42.392Z,99822.72
2022-12-29T05:22:10.077Z,99818.81
2022-12-29T05:24:37.588Z,99818.63
2022-12-29T05:27:05.158Z,99826.66
2022-12-29T05:29:32.738Z,99809.81
2022-12-29T05:32:01.630Z,99810.00
2022-12-29T05:34:29.182Z,99817.63
2022-12-29T05:36:56.687Z,99797.94
2022-12-29T05:39:24.130Z,99790.78
2022-12-29T05:41:51.614Z,99787.69
2022-12-29T05:44:19.161Z,99787.91
2022-12-29T05:46:47.022Z,99794.03
2022-12-29T05:49:15.956Z,99790.53
2022-12-29T05:51:43.405Z,99777.41
2022-12-29T05:54:10.886Z,99785.00
2022-12-29T05:56:38.388Z,99785.78
2022-12-29T05:59:05.937Z,99781.47
2022-12-29T06:01:35.235Z,99778.59
2022-12-29T06:04:02.904Z,99781.44
2022-12-29T06:06:31.813Z,99784.94
2022-12-29T06:08:59.319Z,99783.69
2022-12-29T06:11:26.793Z,99794.56
2022-12-29T06:13:54.306Z,99803.38
2022-12-29T06:16:21.989Z,99792.69
2022-12-29T06:18:49.484Z,99783.84
2022-12-29T06:21:16.917Z,99787.16
2022-12-29T06:23:46.166Z,99795.56
2022-12-29T06:26:13.621Z,99801.72
2022-12-29T06:28:41.360Z,99799.44
2022-12-29T06:31:11.236Z,99793.50
2022-12-29T06:33:39.087Z,99789.22
2022-12-29T06:36:07.120Z,99792.69
2022-12-29T06:38:36.096Z,99811.72
2022-12-29T06:41:05.128Z,99786.09
2022-12-29T06:43:33.157Z,99793.50
2022-12-29T06:46:01.334Z,99810.09
2022-12-29T06:48:28.826Z,99799.06
2022-12-29T06:50:56.295Z,99805.81
2022-12-29T06:53:23.774Z,99809.31
2022-12-29T06:55:51.378Z,99806.03
2022-12-29T06:58:20.292Z,99796.19
2022-12-29T07:00:47.897Z,99802.38
2022-12-29T07:03:15.488Z,99804.66
2022-12-29T07:05:42.962Z,99787.19
2022-12-29T07:08:10.473Z,99785.56
2022-12-29T07:10:37.943Z,99797.88
2022-12-29T07:13:05.434Z,99788.06
2022-12-29T07:15:34.249Z,99791.16
2022-12-29T07:18:01.752Z,99774.13
2022-12-29T07:20:29.239Z,99785.38
2022-12-29T07:22:56.785Z,99783.13
2022-12-29T07:25:24.324Z,99786.00
2022-12-29T07:27:51.976Z,99780.88
2022-12-29T07:30:19.664Z,99785.59
2022-12-29T07:32:48.422Z,99786.81
2022-12-29T07:35:15.887Z,99785.56
2022-12-29T07:37:45.092Z,99787.63
2022-12-29T07:40:13.728Z,99782.88
2022-12-29T07:42:41.636Z,99791.28
2022-12-29T07:45:11.086Z,99803.38
2022-12-29T07:47:38.570Z,99800.28
2022-12-29T07:50:08.377Z,99815.84
2022-12-29T07:52:35.973Z,99810.09
2022-12-29T07:55:03.435Z,99804.78
2022-12-29T07:57:32.243Z,99797.22
2022-12-29T08:00:00.061Z,99811.56
2022-12-29T08:02:28.141Z,99813.00
2022-12-29T08:04:55.820Z,99809.47
2022-12-29T08:07:24.643Z,99815.88
2022-12-29T08:09:52.091Z,99810.72
2022-12-29T08:12:19.729Z,99811.97
2022-12-29T08:14:47.199Z,99818.72
2022-12-29T08:17:14.650Z,99828.19
2022-12-29T08:19:43.489Z,99829.84
2022-12-29T08:22:11.129Z,99828.19
2022-12-29T08:24:39.965Z,99844.59
2022-12-29T08:27:16.074Z,99841.97
2022-12-29T08:29:47.347Z,99847.50
2022-12-29T08:32:14.868Z,99844.84
2022-12-29T08:34:42.365Z,99842.59
2022-12-29T08:37:09.850Z,99860.22
2022-12-29T08:39:37.426Z,99848.72
2022-12-29T08:42:07.239Z,99849.56
2022-12-29T08:44:34.727Z,99844.22
2022-12-29T08:47:02.228Z,99855.88
2022-12-29T08:49:29.819Z,99862.88
2022-12-29T08:51:57.301Z,99874.78
2022-12-29T08:54:24.857Z,99868.44
2022-12-29T08:56:52.590Z,99879.28
2022-12-29T08:59:21.393Z,99891.38
2022-12-29T09:01:48.957Z,99887.72
2022-12-29T09:04:17.632Z,99897.53
2022-12-29T09:06:46.164Z,99899.75
2022-12-29T09:09:14.267Z,99913.69
2022-12-29T09:11:42.145Z,99897.03
2022-12-29T09:14:09.931Z,99905.25
2022-12-29T09:16:39.043Z,99897.03
2022-12-29T09:19:06.707Z,99899.69
2022-12-29T09:21:34.293Z,99906.00
2022-12-29T09:24:01.829Z,99910.94
2022-12-29T09:26:29.342Z,99915.84
2022-12-29T09:28:57.703Z,99898.69
2022-12-29T09:31:25.983Z,99913.81
2022-12-29T09:33:54.785Z,99924.47
2022-12-29T09:36:22.257Z,99937.94
2022-12-29T09:38:49.699Z,99943.88
2022-12-29T09:41:22.823Z,99940.16
2022-12-29T09:44:05.592Z,99949.53
2022-12-29T09:46:36.625Z,99936.78
2022-12-29T09:49:11.967Z,99932.88
2022-12-29T09:51:40.330Z,99939.22
2022-12-29T09:54:23.223Z,99942.66
2022-12-29T09:56:51.267Z,99941.44
2022-12-29T09:59:21.850Z,99947.78
2022-12-29T10:01:54.733Z,99948.03
2022-12-29T10:04:23.697Z,99941.88
2022-12-29T10:07:28.083Z,99941.44
2022-12-29T10:09:47.748Z,99948.38
2022-12-29T10:12:25.428Z,99940.00
2022-12-29T10:15:02.484Z,99930.00
2022-12-29T10:17:38.191Z,99936.13
2022-12-29T10:20:28.211Z,99922.22
2022-12-29T10:23:07.892Z,99926.00
2022-12-29T10:25:39.608Z,99930.50
2022-12-29T10:28:11.682Z,99927.50
2022-12-29T10:30:39.681Z,99934.19
2022-12-29T10:33:09.775Z,99938.06
2022-12-29T10:35:41.331Z,99932.34
2022-12-29T10:38:15.168Z,99945.41
2022-12-29T10:40:45.752Z,99944.88
2022-12-29T10:43:21.513Z,99944.22
2022-12-29T10:45:49.839Z,99940.53
2022-12-29T10:48:24.853Z,99946.75
2022-12-29T10:51:01.989Z,99936.06
2022-12-29T10:53:33.965Z,99938.38
2022-12-29T10:56:02.801Z,99944.53
2022-12-29T10:58:33.059Z,99945.22
2022-12-29T11:01:00.948Z,99947.09
2022-12-29T11:03:48.251Z,99928.38
2022-12-29T11:06:20.957Z,99937.06
2022-12-29T11:08:54.406Z,99941.59
2022-12-29T11:11:27.967Z,99944.09
2022-12-29T11:14:00.404Z,99931.66
2022-12-29T11:16:33.759Z,99941.72
2022-12-29T11:19:01.861Z,99941.50
2022-12-29T11:21:34.804Z,99959.16
2022-12-29T11:24:03.599Z,99969.41
2022-12-29T11:26:34.535Z,99972.25
2022-12-29T11:29:17.922Z,99959.81
2022-12-29T11:31:47.413Z,99956.53
2022-12-29T11:34:20.326Z,99956.97
2022-12-29T11:36:49.853Z,99963.13
2022-12-29T11:39:28.721Z,99959.88
2022-12-29T11:41:56.345Z,99953.50
2022-12-29T11:44:23.952Z,99961.69
2022-12-29T11:46:53.162Z,99966.03
2022-12-29T11:49:22.310Z,99957.63
2022-12-29T11:51:52.811Z,99945.09
2022-12-29T11:54:23.918Z,99943.88
2022-12-29T11:56:52.154Z,99936.69
2022-12-29T11:59:38.863Z,99941.00
2022-12-29T12:02:37.294Z,99941.63
2022-12-29T12:05:17.721Z,99928.06
2022-12-29T12:07:47.944Z,99929.06
2022-12-29T12:10:34.681Z,99917.81
2022-12-29T12:13:08.160Z,99924.19
2022-12-29T12:15:45.364Z,99927.03
2022-12-29T12:18:19.483Z,99936.28
2022-12-29T12:20:49.634Z,99938.13
2022-12-29T12:23:38.792Z,99953.94
2022-12-29T12:26:12.535Z,99940.19
2022-12-29T12:28:47.087Z,99937.09
2022-12-29T12:31:21.207Z,99926.84
2022-12-29T12:33:50.751Z,99941.03
2022-12-29T12:36:28.985Z,99937.09
2022-12-29T12:39:04.743Z,99933.41
2022-12-29T12:41:43.534Z,99933.41
2022-12-29T12:44:13.810Z,99943.44
2022-12-29T12:46:54.458Z,99931.16
2022-12-29T12:49:44.773Z,99937.94
2022-12-29T12:52:19.138Z,99938.97
2022-12-29T12:54:59.136Z,99947.97
2022-12-29T12:57:36.720Z,99945.31
2022-12-29T13:00:07.537Z,99947.78
2022-12-29T13:02:45.648Z,99955.34
2022-12-29T13:05:29.152Z,99950.84
2022-12-29T13:08:08.862Z,99959.66
2022-12-29T13:10:48.334Z,99938.94
2022-12-29T13:13:45.058Z,99934.66
2022-12-29T13:16:15.473Z,99931.56
2022-12-29T13:18:48.735Z,99937.72
2022-12-29T13:21:24.481Z,99942.81
2022-12-29T13:23:58.281Z,99931.16
2022-12-29T13:26:31.538Z,99938.13
2022-12-29T13:29:04.136Z,99931.97
2022-12-29T13:31:37.892Z,99931.13
2022-12-29T13:34:13.145Z,99933.81
2022-12-29T13:36:46.579Z,99922.72
2022-12-29T13:39:21.086Z,99932.78
2022-12-29T13:41:52.456Z,99940.16
2022-12-29T13:44:23.925Z,99943.03
2022-12-29T13:46:51.896Z,99950.44
2022-12-29T13:49:21.088Z,99949.59
2022-12-29T13:51:50.988Z,99941.81
2022-12-29T13:54:33.037Z,99936.06
2022-12-29T13:57:08.895Z,99936.91
2022-12-29T13:59:42.681Z,99932.41
2022-12-29T14:02:19.003Z,99944.47
2022-12-29T14:04:58.416Z,99939.34
2022-12-29T14:07:25.985Z,99943.66
2022-12-29T14:09:54.596Z,99941.41
2022-12-29T14:12:33.795Z,99946.94
2022-12-29T14:15:07.176Z,99939.34
2022-12-29T14:17:34.840Z,99956.19
2022-12-29T14:20:02.570Z,99968.06
2022-12-29T14:22:33.345Z,99965.00
2022-12-29T14:25:01.220Z,99968.28
2022-12-29T14:27:55.751Z,99984.69
2022-12-29T14:30:59.804Z,99975.88
2022-12-29T14:33:30.342Z,99981.59
2022-12-29T14:35:58.408Z,99991.03
2022-12-29T14:38:33.202Z,99992.47
2022-12-29T14:41:34.474Z,99991.03
2022-12-29T14:44:16.839Z,99988.56
2022-12-29T14:46:50.085Z,99993.09
2022-12-29T14:49:20.905Z,99992.91
2022-12-29T14:51:49.223Z,99995.56
2022-12-29T14:54:52.156Z,99998.22
2022-12-29T14:57:27.804Z,100001.72
2022-12-29T15:00:00.307Z,99989.19
2022-12-29T15:02:35.255Z,99985.09
2022-12-29T15:05:04.783Z,99970.53
2022-12-29T15:07:33.153Z,99974.63
2022-12-29T15:10:06.761Z,99982.00
2022-12-29T15:12:39.361Z,99990.19
2022-12-29T15:15:20.480Z,99986.25
2022-12-29T15:17:48.104Z,99991.75
2022-12-29T15:20:27.579Z,100001.22
2022-12-29T15:22:57.878Z,99996.28
2022-12-29T15:25:26.247Z,100001.81
2022-12-29T15:27:55.014Z,99987.63
2022-12-29T15:30:24.287Z,99996.66
2022-12-29T15:32:52.769Z,99997.84
2022-12-29T15:35:35.835Z,99992.53
2022-12-29T15:38:15.180Z,100000.72
2022-12-29T15:40:45.896Z,100000.72
2022-12-29T15:43:25.550Z,99996.78
2022-12-29T15:45:56.170Z,99996.38
2022-12-29T15:48:25.370Z,99999.63
2022-12-29T15:50:53.233Z,100004.13
2022-12-29T15:53:25.660Z,100016.69
2022-12-29T15:55:55.944Z,100016.84
2022-12-29T15:58:28.921Z,100022.50
2022-12-29T16:00:59.775Z,100025.59
2022-12-29T16:03:28.817Z,100025.38
2022-12-29T16:05:57.779Z,100026.41
2022-12-29T16:08:38.775Z,100039.69
2022-12-29T16:11:10.164Z,100032.09
2022-12-29T16:13:40.865Z,100032.09
2022-12-29T16:16:16.132Z,100028.22
2022-12-29T16:18:43.806Z,100033.75
2022-12-29T16:21:18.995Z,100038.41
2022-12-29T16:23:49.678Z,100032.44
2022-12-29T16:26:18.467Z,100040.22
2022-12-29T16:28:46.380Z,100049.81
2022-12-29T16:31:24.617Z,100057.28
2022-12-29T16:33:53.927Z,100061.13
2022-12-29T16:36:30.878Z,100060.25
2022-12-29T16:39:25.244Z,100072.22
2022-12-29T16:41:53.213Z,100069.09
2022-12-29T16:44:22.194Z,100071.09
2022-12-29T16:47:06.121Z,100079.22
2022-12-29T16:49:36.299Z,100061.22
2022-12-29T16:52:13.496Z,100083.28
2022-12-29T16:54:41.280Z,100077.75
2022-12-29T16:57:09.401Z,100076.69
2022-12-29T16:59:39.149Z,100084.88
2022-12-29T17:02:14.952Z,100091.44
2022-12-29T17:04:42.667Z,100090.75
2022-12-29T17:07:15.991Z,100094.63
2022-12-29T17:09:43.620Z,100099.94
2022-12-29T17:12:13.382Z,100098.28
2022-12-29T17:14:43.578Z,100104.13
2022-12-29T17:17:17.369Z,100113.44
2022-12-29T17:19:48.315Z,100102.28
2022-12-29T17:22:18.942Z,100112.91
2022-12-29T17:24:46.834Z,100107.59
2022-12-29T17:27:22.891Z,100114.00
2022-12-29T17:29:51.088Z,100119.50
2022-12-29T17:32:20.516Z,100118.22
2022-12-29T17:34:48.780Z,100109.63
2022-12-29T17:37:30.348Z,100109.63
2022-12-29T17:39:58.111Z,100116.97
2022-12-29T17:42:26.035Z,100116.16
2022-12-29T17:44:53.754Z,100114.94
2022-12-29T17:47:22.718Z,100113.78
2022-12-29T17:49:50.279Z,100119.69
2022-12-29T17:52:18.642Z,100112.22
2022-12-29T17:54:48.053Z,100112.47
2022-12-29T17:57:16.993Z,100109.38
2022-12-29T17:59:44.615Z,100104.19
2022-12-29T18:02:25.932Z,100104.47
2022-12-29T18:04:54.155Z,100106.66
2022-12-29T18:07:22.543Z,100118.09
2022-12-29T18:09:50.275Z,100116.41
2022-12-29T18:12:39.025Z,100105.94
2022-12-29T18:15:08.391Z,100112.59
2022-12-29T18:17:37.602Z,100113.91
2022-12-29T18:20:05.905Z,100123.34
2022-12-29T18:22:33.575Z,100120.50
2022-12-29T18:25:02.037Z,100123.78
2022-12-29T18:27:29.773Z,100129.94
2022-12-29T18:29:57.304Z,100130.69
2022-12-29T18:32:25.104Z,100137.81
2022-12-29T18:34:54.214Z,100134.78
2022-12-29T18:37:21.850Z,100132.31
2022-12-29T18:39:49.702Z,100133.84
2022-12-29T18:42:18.494Z,100135.66
2022-12-29T18:44:46.199Z,100144.16
2022-12-29T18:47:13.857Z,100133.75
2022-12-29T18:49:41.624Z,100141.91
2022-12-29T18:52:13.980Z,100135.66
2022-12-29T18:54:41.504Z,100147.22
2022-12-29T18:57:08.998Z,100144.84
2022-12-29T18:59:36.582Z,100148.94
2022-12-29T19:02:04.270Z,100149.31
2022-12-29T19:04:31.815Z,100143.91
2022-12-29T19:06:59.295Z,100151.44
2022-12-29T19:09:28.327Z,100164.19
2022-12-29T19:11:55.952Z,100164.19
2022-12-29T19:14:23.552Z,100164.19
2022-12-29T19:16:51.153Z,100170.66
2022-12-29T19:19:18.881Z,100176.00
2022-12-29T19:21:49.096Z,100180.94
2022-12-29T19:24:16.767Z,100186.00
2022-12-29T19:26:45.727Z,100179.75
2022-12-29T19:29:15.590Z,100175.00
2022-12-29T19:31:43.708Z,100187.72
2022-12-29T19:34:11.962Z,100180.56
2022-12-29T19:36:39.562Z,100184.63
2022-12-29T19:39:07.229Z,100188.19
2022-12-29T19:41:34.978Z,100191.00
2022-12-29T19:44:05.219Z,100191.13
2022-12-29T19:46:32.971Z,100194.38
2022-12-29T19:49:00.986Z,100203.53
2022-12-29T19:51:28.650Z,100207.22
2022-12-29T19:53:58.373Z,100198.69
2022-12-29T19:56:25.956Z,100203.91
2022-12-29T19:58:57.551Z,100193.28
2022-12-29T20:01:27.358Z,100196.84
2022-12-29T20:03:55.071Z,100197.78
2022-12-29T20:06:22.966Z,100195.13
2022-12-29T20:08:50.560Z,100201.63
2022-12-29T20:11:19.219Z,100207.84
2022-12-29T20:13:47.896Z,100209.72
2022-12-29T20:16:18.036Z,100215.63
2022-12-29T20:18:47.890Z,100211.06
2022-12-29T20:21:18.091Z,100212.63
2022-12-29T20:23:46.222Z,100214.09
2022-12-29T20:26:15.665Z,100206.47
2022-12-29T20:28:43.421Z,100217.47
2022-12-29T20:31:17.138Z,100226.09
2022-12-29T20:33:44.777Z,100227.34
2022-12-29T20:36:16.137Z,100228.19
2022-12-29T20:38:44.451Z,100232.78
2022-12-29T20:41:13.879Z,100240.75
2022-12-29T20:43:42.143Z,100231.94
2022-12-29T20:46:11.008Z,100249.53
2022-12-29T20:48:39.053Z,100235.25
2022-12-29T20:51:07.459Z,100246.22
2022-12-29T20:53:37.606Z,100243.38
2022-12-29T20:56:07.055Z,100251.16
2022-12-29T20:58:47.165Z,100250.06
2022-12-29T21:01:24.385Z,100256.66
2022-12-29T21:03:52.500Z,100263.34
2022-12-29T21:06:21.716Z,100269.09
2022-12-29T21:08:51.146Z,100276.31
2022-12-29T21:11:19.527Z,100275.78
2022-12-29T21:13:47.194Z,100270.56
2022-12-29T21:16:15.481Z,100269.56
2022-12-29T21:18:43.340Z,100269.38
2022-12-29T21:21:16.185Z,100268.91
2022-12-29T21:23:43.963Z,100278.25
2022-12-29T21:26:15.213Z,100276.41
2022-12-29T21:28:43.499Z,100273.50
2022-12-29T21:31:12.779Z,100276.22
2022-12-29T21:33:40.428Z,100279.28
2022-12-29T21:36:09.519Z,100285.00
2022-12-29T21:38:39.746Z,100294.19
2022-12-29T21:41:08.712Z,100292.31
2022-12-29T21:43:38.511Z,100301.16
2022-12-29T21:46:06.189Z,100290.63
2022-12-29T21:48:33.865Z,100295.69
2022-12-29T21:51:30.180Z,100300.03
2022-12-29T21:54:20.382Z,100312.81
2022-12-29T21:56:49.044Z,100311.13
2022-12-29T21:59:35.963Z,100320.31
2022-12-29T22:02:23.259Z,100320.41
2022-12-29T22:05:12.176Z,100315.84
2022-12-29T22:07:57.822Z,100328.53
2022-12-29T22:10:43.418Z,100334.19
2022-12-29T22:13:11.280Z,100341.31
2022-12-29T22:15:41.069Z,100347.28
2022-12-29T22:18:08.666Z,100347.84
2022-12-29T22:20:37.610Z,100346.72
2022-12-29T22:23:05.507Z,100345.59
2022-12-29T22:25:33.226Z,100348.19
2022-12-29T22:28:00.901Z,100353.50
2022-12-29T22:30:28.973Z,100354.88
2022-12-29T22:32:59.396Z,100356.19
2022-12-29T22:35:27.097Z,100357.03
2022-12-29T22:37:55.203Z,100347.81
2022-12-29T22:40:22.873Z,100355.41
2022-12-29T22:42:50.471Z,100361.84
2022-12-29T22:45:18.133Z,100365.16
2022-12-29T22:47:45.678Z,100355.84
2022-12-29T22:50:17.317Z,100359.28
2022-12-29T22:52:44.918Z,100356.69
2022-12-29T22:55:12.462Z,100357.72
2022-12-29T22:57:40.132Z,100358.56
2022-12-29T23:00:09.134Z,100365.03
2022-12-29T23:02:36.978Z,100375.50
2022-12-29T23:05:06.103Z,100382.31
2022-12-29T23:07:36.280Z,100389.41
2022-12-29T23:10:04.101Z,100397.00
2022-12-29T23:12:32.493Z,100394.06
2022-12-29T23:15:02.207Z,100393.41
2022-12-29T23:17:29.995Z,100387.66
2022-12-29T23:19:57.605Z,100390.50
2022-12-29T23:22:25.247Z,100389.81
2022-12-29T23:24:54.200Z,100400.44
2022-12-29T23:27:22.005Z,100411.66
2022-12-29T23:29:49.625Z,100409.03
2022-12-29T23:32:17.289Z,100406.72
2022-12-29T23:34:44.815Z,100412.66
2022-12-29T23:37:12.890Z,100414.66
2022-12-29T23:39:43.226Z,100405.06
2022-12-29T23:42:12.353Z,100403.88
2022-12-29T23:44:40.121Z,100403.41
2022-12-29T23:47:07.824Z,100413.81
2022-12-29T23:49:35.485Z,100407.88
2022-12-29T23:52:03.157Z,100414.81
2022-12-29T23:54:30.678Z,100406.53
2022-12-29T23:56:58.371Z,100406.06
2022-12-29T23:59:27.487Z,100417.16
